createdAt,value
2022-10-31T00:01:38.379Z,8.03
2022-10-31T00:04:07.478Z,8.23
2022-10-31T00:06:36.253Z,7.13
2022-10-31T00:09:06.755Z,10.50
2022-10-31T00:11:36.860Z,9.77
2022-10-31T00:14:06.425Z,9.83
2022-10-31T00:16:35.183Z,10.00
2022-10-31T00:19:08.108Z,10.37
2022-10-31T00:21:40.085Z,8.20
2022-10-31T00:24:10.780Z,12.30
2022-10-31T00:26:40.630Z,14.23
2022-10-31T00:29:09.012Z,14.10
2022-10-31T00:31:37.734Z,15.70
2022-10-31T00:34:06.004Z,15.17
2022-10-31T00:36:34.741Z,11.97
2022-10-31T00:39:03.174Z,15.07
2022-10-31T00:41:34.353Z,14.07
2022-10-31T00:44:04.019Z,16.03
2022-10-31T00:46:35.210Z,13.73
2022-10-31T00:49:03.721Z,13.63
2022-10-31T00:51:32.681Z,10.57
2022-10-31T00:54:01.058Z,11.60
2022-10-31T00:56:29.698Z,11.90
2022-10-31T00:58:58.194Z,11.17
2022-10-31T01:01:28.762Z,10.77
2022-10-31T01:03:57.296Z,9.97
2022-10-31T01:06:26.926Z,10.97
2022-10-31T01:08:55.225Z,10.13
2022-10-31T01:11:25.133Z,9.87
2022-10-31T01:13:55.145Z,10.53
2022-10-31T01:16:25.852Z,8.47
2022-10-31T01:18:57.877Z,8.33
2022-10-31T01:21:28.247Z,8.37
2022-10-31T01:23:59.682Z,7.67
2022-10-31T01:26:30.676Z,10.67
2022-10-31T01:29:03.401Z,8.00
2022-10-31T01:31:36.390Z,8.03
2022-10-31T01:34:07.562Z,11.87
2022-10-31T01:36:38.578Z,11.93
2022-10-31T01:39:08.702Z,8.27
2022-10-31T01:41:42.233Z,9.80
2022-10-31T01:44:48.462Z,9.93
2022-10-31T01:47:21.928Z,9.53
2022-10-31T01:49:53.594Z,10.07
2022-10-31T01:52:26.682Z,10.53
2022-10-31T01:55:00.448Z,8.87
2022-10-31T01:57:29.404Z,10.10
2022-10-31T02:00:01.050Z,9.43
2022-10-31T02:02:34.095Z,8.13
2022-10-31T02:05:10.725Z,12.77
2022-10-31T02:07:46.705Z,10.33
2022-10-31T02:10:15.176Z,9.30
2022-10-31T02:12:49.299Z,10.00
2022-10-31T02:15:17.828Z,7.23
2022-10-31T02:17:48.227Z,7.17
2022-10-31T02:20:21.937Z,10.57
2022-10-31T02:23:26.182Z,7.17
2022-10-31T02:26:13.059Z,7.87
2022-10-31T02:29:04.850Z,8.63
2022-10-31T02:31:42.585Z,6.97
2022-10-31T02:34:23.269Z,8.43
2022-10-31T02:36:59.002Z,7.07
2022-10-31T02:39:31.948Z,7.33
2022-10-31T02:42:10.953Z,10.10
2022-10-31T02:44:44.004Z,11.10
2022-10-31T02:47:17.433Z,12.37
2022-10-31T02:49:52.632Z,9.87
2022-10-31T02:52:22.300Z,8.53
2022-10-31T02:54:51.272Z,12.73
2022-10-31T02:57:22.857Z,7.80
2022-10-31T02:59:56.972Z,8.90
2022-10-31T03:02:48.543Z,8.03
2022-10-31T03:05:50.359Z,7.00
2022-10-31T03:08:25.673Z,7.57
2022-10-31T03:10:58.976Z,8.00
2022-10-31T03:13:36.420Z,8.83
2022-10-31T03:16:12.822Z,8.00
2022-10-31T03:18:51.331Z,7.73
2022-10-31T03:21:25.020Z,8.97
2022-10-31T03:23:55.552Z,7.53
2022-10-31T03:26:25.815Z,9.33
2022-10-31T03:28:57.742Z,8.17
2022-10-31T03:31:34.196Z,8.67
2022-10-31T03:34:05.109Z,7.97
2022-10-31T03:36:36.145Z,7.20
2022-10-31T03:39:08.192Z,8.10
2022-10-31T03:41:43.155Z,6.47
2022-10-31T03:44:17.882Z,6.90
2022-10-31T03:46:46.862Z,7.67
2022-10-31T03:49:18.517Z,8.67
2022-10-31T03:51:52.110Z,7.43
2022-10-31T03:54:27.931Z,6.60
2022-10-31T03:57:01.340Z,7.30
2022-10-31T03:59:35.075Z,9.10
2022-10-31T04:02:08.270Z,8.90
2022-10-31T04:04:39.389Z,9.53
2022-10-31T04:07:10.219Z,8.77
2022-10-31T04:09:41.640Z,8.80
2022-10-31T04:12:12.333Z,9.03
2022-10-31T04:14:41.901Z,9.43
2022-10-31T04:17:14.751Z,6.93
2022-10-31T04:19:44.786Z,10.87
2022-10-31T04:22:13.214Z,11.33
2022-10-31T04:24:42.548Z,9.27
2022-10-31T04:27:11.050Z,9.13
2022-10-31T04:29:39.526Z,11.37
2022-10-31T04:32:08.432Z,11.93
2022-10-31T04:34:36.740Z,12.67
2022-10-31T04:37:06.411Z,10.73
2022-10-31T04:39:34.647Z,9.80
2022-10-31T04:42:03.088Z,8.57
2022-10-31T04:44:31.513Z,10.63
2022-10-31T04:46:59.923Z,11.40
2022-10-31T04:49:28.356Z,8.20
2022-10-31T04:51:56.724Z,9.70
2022-10-31T04:54:26.746Z,8.97
2022-10-31T04:56:55.408Z,9.33
2022-10-31T04:59:23.805Z,8.43
2022-10-31T05:01:52.433Z,8.93
2022-10-31T05:04:20.884Z,8.27
2022-10-31T05:06:49.969Z,8.73
2022-10-31T05:09:18.223Z,13.30
2022-10-31T05:11:47.934Z,10.07
2022-10-31T05:14:16.339Z,7.70
2022-10-31T05:16:44.901Z,10.40
2022-10-31T05:19:13.261Z,8.80
2022-10-31T05:21:41.618Z,8.10
2022-10-31T05:24:10.426Z,7.63
2022-10-31T05:26:38.644Z,8.60
2022-10-31T05:29:08.293Z,8.47
2022-10-31T05:31:36.526Z,9.03
2022-10-31T05:34:05.249Z,9.43
2022-10-31T05:36:33.549Z,9.83
2022-10-31T05:39:01.989Z,9.67
2022-10-31T05:41:30.488Z,9.73
2022-10-31T05:43:59.025Z,8.40
2022-10-31T05:46:28.781Z,11.07
2022-10-31T05:49:02.485Z,8.60
2022-10-31T05:51:31.224Z,10.27
2022-10-31T05:53:59.492Z,9.13
2022-10-31T05:56:28.035Z,8.60
2022-10-31T05:58:56.462Z,8.83
2022-10-31T06:01:24.994Z,8.13
2022-10-31T06:03:54.514Z,10.73
2022-10-31T06:06:23.989Z,9.57
2022-10-31T06:08:52.283Z,11.17
2022-10-31T06:11:21.317Z,8.57
2022-10-31T06:13:49.787Z,10.43
2022-10-31T06:16:18.081Z,12.97
2022-10-31T06:18:47.814Z,10.63
2022-10-31T06:21:19.075Z,11.23
2022-10-31T06:23:47.965Z,9.30
2022-10-31T06:26:16.463Z,9.40
2022-10-31T06:28:45.197Z,11.10
2022-10-31T06:31:13.687Z,8.97
2022-10-31T06:33:45.022Z,12.03
2022-10-31T06:36:13.890Z,8.70
2022-10-31T06:38:43.553Z,12.27
2022-10-31T06:41:11.918Z,10.97
2022-10-31T06:43:40.401Z,9.57
2022-10-31T06:46:09.796Z,11.97
2022-10-31T06:48:38.361Z,9.60
2022-10-31T06:51:06.783Z,11.07
2022-10-31T06:53:35.199Z,10.47
2022-10-31T06:56:04.984Z,9.57
2022-10-31T06:58:34.993Z,10.43
2022-10-31T07:01:03.943Z,8.83
2022-10-31T07:03:32.278Z,7.63
2022-10-31T07:06:00.721Z,11.77
2022-10-31T07:08:29.955Z,10.93
2022-10-31T07:10:59.505Z,14.77
2022-10-31T07:13:29.502Z,13.50
2022-10-31T07:16:02.626Z,12.93
2022-10-31T07:18:30.896Z,10.53
2022-10-31T07:21:02.633Z,14.07
2022-10-31T07:23:31.000Z,10.53
2022-10-31T07:26:00.434Z,13.93
2022-10-31T07:28:30.092Z,12.53
2022-10-31T07:30:59.811Z,14.87
2022-10-31T07:33:29.956Z,13.00
2022-10-31T07:35:58.613Z,11.00
2022-10-31T07:38:27.135Z,15.80
2022-10-31T07:40:55.410Z,12.00
2022-10-31T07:43:23.975Z,12.43
2022-10-31T07:45:54.878Z,15.87
2022-10-31T07:48:23.549Z,14.33
2022-10-31T07:50:52.130Z,13.97
2022-10-31T07:53:20.689Z,15.70
2022-10-31T07:55:50.180Z,12.73
2022-10-31T07:58:19.278Z,12.43
2022-10-31T08:00:49.118Z,12.57
2022-10-31T08:03:21.501Z,11.17
2022-10-31T08:05:49.732Z,15.03
2022-10-31T08:08:18.221Z,14.67
2022-10-31T08:10:47.082Z,10.60
2022-10-31T08:13:16.628Z,10.87
2022-10-31T08:15:45.501Z,9.37
2022-10-31T08:18:15.352Z,17.13
2022-10-31T08:20:45.704Z,11.67
2022-10-31T08:23:14.902Z,11.03
2022-10-31T08:25:43.864Z,10.30
2022-10-31T08:28:16.205Z,11.23
2022-10-31T08:30:44.642Z,10.87
2022-10-31T08:33:15.358Z,11.90
2022-10-31T08:35:45.911Z,13.87
2022-10-31T08:38:15.270Z,12.47
2022-10-31T08:40:44.439Z,9.57
2022-10-31T08:43:14.953Z,12.80
2022-10-31T08:45:44.344Z,12.33
2022-10-31T08:48:14.540Z,9.17
2022-10-31T08:50:46.055Z,9.27
2022-10-31T08:53:16.312Z,10.23
2022-10-31T08:55:46.262Z,7.67
2022-10-31T08:58:16.777Z,10.80
2022-10-31T09:00:45.924Z,13.57
2022-10-31T09:03:16.686Z,9.87
2022-10-31T09:05:46.961Z,8.83
2022-10-31T09:08:17.093Z,10.13
2022-10-31T09:10:45.804Z,8.60
2022-10-31T09:13:15.635Z,7.57
2022-10-31T09:15:46.029Z,9.60
2022-10-31T09:18:15.892Z,7.73
2022-10-31T09:20:47.344Z,10.77
2022-10-31T09:23:17.942Z,9.83
2022-10-31T09:25:50.402Z,9.47
2022-10-31T09:28:22.641Z,6.97
2022-10-31T09:30:53.172Z,7.43
2022-10-31T09:33:22.027Z,10.07
2022-10-31T09:35:51.772Z,8.83
2022-10-31T09:38:21.813Z,10.10
2022-10-31T09:40:57.613Z,10.33
2022-10-31T09:43:35.423Z,10.23
2022-10-31T09:46:10.416Z,9.13
2022-10-31T09:48:53.608Z,8.17
2022-10-31T09:51:27.407Z,7.63
2022-10-31T09:53:59.932Z,9.03
2022-10-31T09:56:29.896Z,12.83
2022-10-31T09:59:01.722Z,13.47
2022-10-31T10:01:45.109Z,12.83
2022-10-31T10:04:37.037Z,12.73
2022-10-31T10:07:21.068Z,14.27
2022-10-31T10:09:55.009Z,18.87
2022-10-31T10:12:40.164Z,16.60
2022-10-31T10:15:39.362Z,16.97
2022-10-31T10:18:18.998Z,13.53
2022-10-31T10:21:03.948Z,13.97
2022-10-31T10:23:44.913Z,17.40
2022-10-31T10:26:19.547Z,18.47
2022-10-31T10:28:51.538Z,17.17
2022-10-31T10:31:25.394Z,14.40
2022-10-31T10:34:03.613Z,14.27
2022-10-31T10:36:38.863Z,17.83
2022-10-31T10:39:16.570Z,14.10
2022-10-31T10:42:03.617Z,14.57
2022-10-31T10:44:50.333Z,13.43
2022-10-31T10:47:36.166Z,13.27
2022-10-31T10:50:10.233Z,12.40
2022-10-31T10:52:50.239Z,13.93
2022-10-31T10:55:29.393Z,13.33
2022-10-31T10:58:00.835Z,13.03
2022-10-31T11:00:34.309Z,8.90
2022-10-31T11:03:03.283Z,12.50
2022-10-31T11:05:44.743Z,11.30
2022-10-31T11:08:27.407Z,12.17
2022-10-31T11:11:04.528Z,12.33
2022-10-31T11:13:34.547Z,10.50
2022-10-31T11:16:05.962Z,14.20
2022-10-31T11:18:41.954Z,12.13
2022-10-31T11:21:23.854Z,15.40
2022-10-31T11:23:52.450Z,10.90
2022-10-31T11:26:24.489Z,12.83
2022-10-31T11:28:59.629Z,13.13
2022-10-31T11:31:29.789Z,10.10
2022-10-31T11:34:03.826Z,14.00
2022-10-31T11:36:37.831Z,11.67
2022-10-31T11:39:15.735Z,13.07
2022-10-31T11:41:46.337Z,10.60
2022-10-31T11:44:18.455Z,13.00
2022-10-31T11:46:51.155Z,16.20
2022-10-31T11:49:24.083Z,13.67
2022-10-31T11:51:56.738Z,8.93
2022-10-31T11:54:28.994Z,10.67
2022-10-31T11:57:02.915Z,14.20
2022-10-31T11:59:32.860Z,11.47
2022-10-31T12:02:02.885Z,11.30
2022-10-31T12:04:42.164Z,12.97
2022-10-31T12:07:11.028Z,14.37
2022-10-31T12:09:41.905Z,12.67
2022-10-31T12:12:47.536Z,11.37
2022-10-31T12:15:31.384Z,12.93
2022-10-31T12:18:33.852Z,14.07
2022-10-31T12:21:26.278Z,14.17
2022-10-31T12:24:04.903Z,9.43
2022-10-31T12:26:40.783Z,10.53
2022-10-31T12:29:23.003Z,15.23
2022-10-31T12:32:04.322Z,13.43
2022-10-31T12:34:58.639Z,9.90
2022-10-31T12:37:37.771Z,11.20
2022-10-31T12:40:26.600Z,13.17
2022-10-31T12:43:07.969Z,13.40
2022-10-31T12:45:51.615Z,12.17
2022-10-31T12:48:32.220Z,13.73
2022-10-31T12:51:09.147Z,12.77
2022-10-31T12:53:48.392Z,12.50
2022-10-31T12:56:32.765Z,14.13
2022-10-31T12:59:06.375Z,12.87
2022-10-31T13:01:40.776Z,20.30
2022-10-31T13:04:17.382Z,10.93
2022-10-31T13:06:51.093Z,14.77
2022-10-31T13:09:27.722Z,12.73
2022-10-31T13:12:09.276Z,13.67
2022-10-31T13:14:42.805Z,15.10
2022-10-31T13:17:20.955Z,12.67
2022-10-31T13:19:52.026Z,12.80
2022-10-31T13:22:24.650Z,14.63
2022-10-31T13:24:57.667Z,14.43
2022-10-31T13:27:32.641Z,14.70
2022-10-31T13:30:06.449Z,14.47
2022-10-31T13:32:43.897Z,17.23
2022-10-31T13:35:20.162Z,17.43
2022-10-31T13:37:55.104Z,17.87
2022-10-31T13:40:35.565Z,18.73
2022-10-31T13:43:13.286Z,18.03
2022-10-31T13:45:51.668Z,15.00
2022-10-31T13:48:36.664Z,17.87
2022-10-31T13:51:08.603Z,17.33
2022-10-31T13:53:41.572Z,15.20
2022-10-31T13:56:20.591Z,17.97
2022-10-31T13:59:06.185Z,15.97
2022-10-31T14:01:36.750Z,16.63
2022-10-31T14:04:15.648Z,15.97
2022-10-31T14:06:53.573Z,15.27
2022-10-31T14:09:30.066Z,15.57
2022-10-31T14:12:01.175Z,15.57
2022-10-31T14:14:41.189Z,19.47
2022-10-31T14:17:23.094Z,19.20
2022-10-31T14:20:36.228Z,19.00
2022-10-31T14:23:36.486Z,18.20
2022-10-31T14:26:36.146Z,17.80
2022-10-31T14:29:25.606Z,20.83
2022-10-31T14:31:58.060Z,18.80
2022-10-31T14:34:31.993Z,20.00
2022-10-31T14:37:23.595Z,17.20
2022-10-31T14:40:05.836Z,16.43
2022-10-31T14:42:48.454Z,15.37
2022-10-31T14:45:27.536Z,15.57
2022-10-31T14:48:09.454Z,15.43
2022-10-31T14:50:47.834Z,15.77
2022-10-31T14:53:21.308Z,15.97
2022-10-31T14:55:54.335Z,14.93
2022-10-31T14:58:25.739Z,12.53
2022-10-31T15:00:58.679Z,16.73
2022-10-31T15:03:44.096Z,15.20
2022-10-31T15:06:15.876Z,17.17
2022-10-31T15:08:47.409Z,14.90
2022-10-31T15:11:19.179Z,16.33
2022-10-31T15:13:49.621Z,17.07
2022-10-31T15:16:21.465Z,13.57
2022-10-31T15:18:58.720Z,14.67
2022-10-31T15:21:30.012Z,12.00
2022-10-31T15:24:00.661Z,13.90
2022-10-31T15:26:35.980Z,16.33
2022-10-31T15:29:08.318Z,15.00
2022-10-31T15:31:37.590Z,15.73
2022-10-31T15:34:09.439Z,19.27
2022-10-31T15:36:38.733Z,16.70
2022-10-31T15:39:12.762Z,22.63
2022-10-31T15:41:54.467Z,21.37
2022-10-31T15:44:27.459Z,23.27
2022-10-31T15:47:00.965Z,30.30
2022-10-31T15:49:37.188Z,33.43
2022-10-31T15:52:09.941Z,34.23
2022-10-31T15:54:46.688Z,130.53
2022-10-31T15:57:17.087Z,34.47
2022-10-31T15:59:50.436Z,27.60
2022-10-31T16:02:23.154Z,22.60
2022-10-31T16:04:55.008Z,25.17
2022-10-31T16:07:23.979Z,25.60
2022-10-31T16:09:58.967Z,21.33
2022-10-31T16:12:33.832Z,23.30
2022-10-31T16:15:02.470Z,21.20
2022-10-31T16:17:31.369Z,20.03
2022-10-31T16:20:01.991Z,22.10
2022-10-31T16:22:33.854Z,21.93
2022-10-31T16:25:06.967Z,29.97
2022-10-31T16:27:39.656Z,25.80
2022-10-31T16:30:32.560Z,27.57
2022-10-31T16:33:03.488Z,41.13
2022-10-31T16:35:35.812Z,122.87
2022-10-31T16:38:05.935Z,140.20
2022-10-31T16:40:34.577Z,145.60
2022-10-31T16:43:05.048Z,92.30
2022-10-31T16:45:36.142Z,92.70
2022-10-31T16:48:07.201Z,75.97
2022-10-31T16:50:35.657Z,41.80
2022-10-31T16:53:13.878Z,46.00
2022-10-31T16:55:46.500Z,30.27
2022-10-31T16:58:21.218Z,34.43
2022-10-31T17:00:49.864Z,25.90
2022-10-31T17:03:18.322Z,26.93
2022-10-31T17:05:46.704Z,26.27
2022-10-31T17:08:15.174Z,23.90
2022-10-31T17:10:45.049Z,23.73
2022-10-31T17:13:23.641Z,27.10
2022-10-31T17:15:55.049Z,28.80
2022-10-31T17:18:27.593Z,82.80
2022-10-31T17:21:06.877Z,123.40
2022-10-31T17:23:41.607Z,98.70
2022-10-31T17:26:10.842Z,59.90
2022-10-31T17:28:43.625Z,53.97
2022-10-31T17:31:22.716Z,57.40
2022-10-31T17:33:57.304Z,79.80
2022-10-31T17:36:30.456Z,55.97
2022-10-31T17:38:58.927Z,50.37
2022-10-31T17:41:27.382Z,46.30
2022-10-31T17:43:58.170Z,50.00
2022-10-31T17:46:27.553Z,48.07
2022-10-31T17:48:57.127Z,41.80
2022-10-31T17:51:25.617Z,40.83
2022-10-31T17:53:54.156Z,37.50
2022-10-31T17:56:25.600Z,32.57
2022-10-31T17:58:54.247Z,33.00
2022-10-31T18:01:24.401Z,53.60
2022-10-31T18:03:53.101Z,42.77
2022-10-31T18:06:23.712Z,36.10
2022-10-31T18:08:58.025Z,37.47
2022-10-31T18:11:31.487Z,35.03
2022-10-31T18:14:03.735Z,31.87
2022-10-31T18:16:34.315Z,31.47
2022-10-31T18:19:02.901Z,29.27
2022-10-31T18:21:32.077Z,32.53
2022-10-31T18:24:02.931Z,31.27
2022-10-31T18:26:31.422Z,34.50
2022-10-31T18:29:00.025Z,29.47
2022-10-31T18:31:28.911Z,25.27
2022-10-31T18:33:59.161Z,28.73
2022-10-31T18:36:27.865Z,25.20
2022-10-31T18:38:56.786Z,27.73
2022-10-31T18:41:25.571Z,25.20
2022-10-31T18:43:59.750Z,23.30
2022-10-31T18:46:29.647Z,27.43
2022-10-31T18:49:00.185Z,27.03
2022-10-31T18:51:30.680Z,27.03
2022-10-31T18:54:01.315Z,26.47
2022-10-31T18:56:32.698Z,25.53
2022-10-31T18:59:03.194Z,23.83
2022-10-31T19:01:32.071Z,27.27
2022-10-31T19:04:01.970Z,23.27
2022-10-31T19:06:31.277Z,23.43
2022-10-31T19:09:00.896Z,22.13
2022-10-31T19:11:29.882Z,22.60
2022-10-31T19:13:59.027Z,25.20
2022-10-31T19:16:30.720Z,23.63
2022-10-31T19:19:01.664Z,30.70
2022-10-31T19:21:32.262Z,28.67
2022-10-31T19:24:01.841Z,26.57
2022-10-31T19:26:30.233Z,27.03
2022-10-31T19:28:59.201Z,28.73
2022-10-31T19:31:27.867Z,29.97
2022-10-31T19:33:59.016Z,28.90
2022-10-31T19:36:29.678Z,34.97
2022-10-31T19:38:58.096Z,33.10
2022-10-31T19:41:28.410Z,26.50
2022-10-31T19:43:59.499Z,32.00
2022-10-31T19:46:51.730Z,26.53
2022-10-31T19:49:17.929Z,28.97
2022-10-31T19:51:48.162Z,26.90
2022-10-31T19:54:16.739Z,26.13
2022-10-31T19:56:45.759Z,27.13
2022-10-31T19:59:14.287Z,28.17
2022-10-31T20:01:42.909Z,29.07
2022-10-31T20:04:11.619Z,27.40
2022-10-31T20:06:42.151Z,26.50
2022-10-31T20:09:21.911Z,25.87
2022-10-31T20:11:50.656Z,28.10
2022-10-31T20:14:19.463Z,27.10
2022-10-31T20:16:47.989Z,26.27
2022-10-31T20:19:16.716Z,25.17
2022-10-31T20:21:45.212Z,21.90
2022-10-31T20:24:15.110Z,24.63
2022-10-31T20:26:43.913Z,23.63
2022-10-31T20:29:16.330Z,26.67
2022-10-31T20:31:46.201Z,29.93
2022-10-31T20:34:17.340Z,25.03
2022-10-31T20:36:48.156Z,24.60
2022-10-31T20:39:18.398Z,21.73
2022-10-31T20:41:46.810Z,22.90
2022-10-31T20:44:15.192Z,24.17
2022-10-31T20:46:45.170Z,23.33
2022-10-31T20:49:13.512Z,23.93
2022-10-31T20:51:42.473Z,25.00
2022-10-31T20:54:17.633Z,23.90
2022-10-31T20:56:47.459Z,25.47
2022-10-31T20:59:17.702Z,23.77
2022-10-31T21:01:51.527Z,23.33
2022-10-31T21:04:20.018Z,21.73
2022-10-31T21:06:49.690Z,20.60
2022-10-31T21:09:19.044Z,21.10
2022-10-31T21:11:51.439Z,22.93
2022-10-31T21:14:28.421Z,22.60
2022-10-31T21:16:57.064Z,23.00
2022-10-31T21:19:26.327Z,19.63
2022-10-31T21:21:55.486Z,23.37
2022-10-31T21:24:24.377Z,23.70
2022-10-31T21:26:54.268Z,20.00
2022-10-31T21:29:23.713Z,21.90
2022-10-31T21:31:52.156Z,23.17
2022-10-31T21:34:20.953Z,24.23
2022-10-31T21:36:49.401Z,20.67
2022-10-31T21:39:19.087Z,20.87
2022-10-31T21:41:48.159Z,21.33
2022-10-31T21:44:20.010Z,20.83
2022-10-31T21:46:51.789Z,18.67
2022-10-31T21:49:23.684Z,20.87
2022-10-31T21:51:53.234Z,22.47
2022-10-31T21:54:28.532Z,22.73
2022-10-31T21:56:58.642Z,21.60
2022-10-31T21:59:31.383Z,22.27
2022-10-31T22:02:01.566Z,25.07
2022-10-31T22:04:38.007Z,21.57
2022-10-31T22:07:06.337Z,22.07
2022-10-31T22:09:34.806Z,23.00
2022-10-31T22:12:06.760Z,22.10
2022-10-31T22:14:36.448Z,23.17
2022-10-31T22:17:04.743Z,25.37
2022-10-31T22:19:33.008Z,23.97
2022-10-31T22:22:01.160Z,20.87
2022-10-31T22:24:30.181Z,23.47
2022-10-31T22:26:58.453Z,24.30
2022-10-31T22:29:28.521Z,24.50
2022-10-31T22:32:00.537Z,21.90
2022-10-31T22:34:30.085Z,20.73
2022-10-31T22:36:58.950Z,25.00
2022-10-31T22:39:27.568Z,24.03
2022-10-31T22:41:59.222Z,23.73
2022-10-31T22:44:27.739Z,18.07
2022-10-31T22:46:59.513Z,22.13
2022-10-31T22:49:30.466Z,19.43
2022-10-31T22:51:59.875Z,18.40
2022-10-31T22:54:28.311Z,21.83
2022-10-31T22:56:56.998Z,19.13
2022-10-31T22:59:25.557Z,24.30
2022-10-31T23:01:54.633Z,18.97
2022-10-31T23:04:23.759Z,16.93
2022-10-31T23:06:53.894Z,19.13
2022-10-31T23:09:22.481Z,20.43
2022-10-31T23:11:50.775Z,18.67
2022-10-31T23:14:21.111Z,18.47
2022-10-31T23:16:52.008Z,19.03
2022-10-31T23:19:22.903Z,18.10
2022-10-31T23:21:59.416Z,16.77
2022-10-31T23:24:32.813Z,17.67
2022-10-31T23:27:10.561Z,14.77
2022-10-31T23:29:45.038Z,15.67
2022-10-31T23:32:19.928Z,15.20
2022-10-31T23:34:49.643Z,19.03
2022-10-31T23:37:20.744Z,15.83
2022-10-31T23:39:49.709Z,13.67
2022-10-31T23:42:18.912Z,15.43
2022-10-31T23:44:47.799Z,13.40
2022-10-31T23:47:17.498Z,14.07
2022-10-31T23:49:46.056Z,15.97
2022-10-31T23:52:16.652Z,15.43
2022-10-31T23:54:47.283Z,15.97
2022-10-31T23:57:17.089Z,18.47
2022-10-31T23:59:46.494Z,15.50
